Time;durP1;ratioP1;P1;durP2;ratioP2;P2;SDS_P1;SDS_P2;PMS_P1;PMS_P2;Temp;Humidity;BMP_temperature;BMP_pressure;BME280_temperature;BME280_humidity;BME280_pressure;Samples;Min_cycle;Max_cycle;Signal;HPM_P1;HPM_P2
2021/03/23 00:01:01;;;;;;;12.10;8.00;;;4.90;90.30;;;;;;5072661;28;20207;-83
2021/03/23 00:03:31;;;;;;;13.48;9.30;;;5.10;90.40;;;;;;5071430;28;20215;-83
2021/03/23 00:05:57;;;;;;;12.00;8.52;;;5.10;89.30;;;;;;5067920;28;20195;-83
2021/03/23 00:08:28;;;;;;;12.13;8.20;;;5.20;89.40;;;;;;5072336;28;20215;-83
2021/03/23 00:10:56;;;;;;;12.40;8.20;;;5.00;89.70;;;;;;5053101;28;20539;-83
2021/03/23 00:13:23;;;;;;;12.48;8.45;;;5.10;90.00;;;;;;5071132;28;20222;-83
2021/03/23 00:15:50;;;;;;;14.18;9.02;;;5.10;89.80;;;;;;5070814;28;20241;-83
2021/03/23 00:18:17;;;;;;;13.57;9.10;;;5.20;89.10;;;;;;5069833;28;20211;-83
2021/03/23 00:20:45;;;;;;;17.38;9.90;;;5.20;89.10;;;;;;5070642;28;20210;-83
2021/03/23 00:23:12;;;;;;;11.90;7.80;;;5.20;89.10;;;;;;5069792;28;20207;-83
2021/03/23 00:25:39;;;;;;;14.65;8.50;;;5.20;88.90;;;;;;5069583;28;20606;-83
2021/03/23 00:28:07;;;;;;;12.68;9.13;;;5.20;88.70;;;;;;5070210;28;20557;-83
2021/03/23 00:30:34;;;;;;;15.27;9.68;;;5.20;88.50;;;;;;5070047;28;20200;-82
2021/03/23 00:33:01;;;;;;;17.75;10.23;;;5.30;89.10;;;;;;5069920;28;20216;-83
2021/03/23 00:35:27;;;;;;;20.00;10.98;;;5.40;88.80;;;;;;5070742;28;20199;-83
2021/03/23 00:37:57;;;;;;;14.45;10.52;;;5.60;89.20;;;;;;5069847;28;20248;-83
2021/03/23 00:40:27;;;;;;;11.15;8.73;;;5.50;88.30;;;;;;5069915;28;20601;-83
2021/03/23 00:42:55;;;;;;;16.30;9.25;;;5.50;88.10;;;;;;5069354;28;20199;-83
2021/03/23 00:45:21;;;;;;;12.55;8.98;;;5.70;88.10;;;;;;5070195;28;20199;-83
2021/03/23 00:47:48;;;;;;;12.20;8.43;;;5.80;87.70;;;;;;5070125;28;20609;-83
2021/03/23 00:50:14;;;;;;;11.38;8.38;;;5.80;86.80;;;;;;5069261;28;20261;-83
2021/03/23 00:52:41;;;;;;;13.77;8.50;;;5.80;86.50;;;;;;5069461;28;20211;-83
2021/03/23 00:55:10;;;;;;;13.93;9.98;;;5.90;87.20;;;;;;5069955;28;20210;-83
2021/03/23 00:57:36;;;;;;;15.77;8.13;;;5.70;87.30;;;;;;5070198;28;20203;-83
2021/03/23 01:00:05;;;;;;;17.80;8.55;;;5.60;87.70;;;;;;5070058;28;20564;-83
2021/03/23 01:02:32;;;;;;;13.95;8.77;;;5.60;87.40;;;;;;5069229;28;20691;-84
2021/03/23 01:04:59;;;;;;;12.70;8.43;;;5.60;87.50;;;;;;5060370;28;20203;-83
2021/03/23 01:07:25;;;;;;;15.02;9.32;;;5.30;87.30;;;;;;5069834;28;20953;-83
2021/03/23 01:09:51;;;;;;;12.32;8.40;;;5.50;88.10;;;;;;5069665;28;20234;-83
2021/03/23 01:12:19;;;;;;;14.77;9.65;;;5.70;87.90;;;;;;5069734;28;20199;-83
2021/03/23 01:14:45;;;;;;;13.00;9.52;;;5.70;87.90;;;;;;5068753;28;20260;-83
2021/03/23 01:17:12;;;;;;;14.48;8.80;;;5.90;87.60;;;;;;5069634;28;20207;-83
2021/03/23 01:19:38;;;;;;;15.57;9.80;;;5.70;87.10;;;;;;5069010;28;20203;-83
2021/03/23 01:22:05;;;;;;;12.63;9.30;;;5.90;87.60;;;;;;5069920;28;20207;-83
2021/03/23 01:24:32;;;;;;;16.48;9.45;;;5.70;87.10;;;;;;5069066;28;20560;-83
2021/03/23 01:27:00;;;;;;;16.98;10.73;;;5.80;88.20;;;;;;5068473;28;20593;-83
2021/03/23 01:29:28;;;;;;;14.60;10.07;;;5.80;88.50;;;;;;5068169;28;20198;-83
2021/03/23 01:31:54;;;;;;;12.73;10.05;;;5.60;88.50;;;;;;5069043;28;20207;-83
2021/03/23 01:34:21;;;;;;;17.33;10.27;;;5.50;89.60;;;;;;5068732;28;20246;-83
2021/03/23 01:36:49;;;;;;;14.63;10.23;;;5.40;90.00;;;;;;5069267;28;20707;-83
2021/03/23 01:39:16;;;;;;;15.40;10.95;;;5.40;90.00;;;;;;5068687;28;20183;-83
2021/03/23 01:41:42;;;;;;;14.93;10.40;;;5.40;90.20;;;;;;5067872;28;20621;-83
2021/03/23 01:44:09;;;;;;;21.08;11.23;;;5.20;90.10;;;;;;5069469;28;20195;-83
2021/03/23 01:46:41;;;;;;;24.77;10.82;;;5.10;90.50;;;;;;5069405;28;20209;-83
2021/03/23 01:49:12;;;;;;;17.08;9.98;;;5.10;90.80;;;;;;5069435;28;20237;-82
2021/03/23 01:51:40;;;;;;;13.70;10.88;;;5.10;90.80;;;;;;5069824;28;20207;-83
2021/03/23 01:54:12;;;;;;;14.90;9.90;;;4.80;91.10;;;;;;5068886;28;20195;-83
2021/03/23 01:56:39;;;;;;;18.40;10.82;;;5.00;91.40;;;;;;5069907;28;20302;-83
2021/03/23 01:59:08;;;;;;;16.00;10.05;;;4.90;91.40;;;;;;5069251;28;20187;-83
2021/03/23 02:01:37;;;;;;;16.27;10.10;;;5.00;91.80;;;;;;5069140;28;20207;-82
2021/03/23 02:04:05;;;;;;;15.57;10.43;;;4.90;91.60;;;;;;5068880;28;20204;-83
2021/03/23 02:06:39;;;;;;;16.58;10.23;;;5.10;91.60;;;;;;5069672;28;20199;-83
2021/03/23 02:09:10;;;;;;;16.02;10.95;;;5.20;91.40;;;;;;5062223;28;20287;-83
2021/03/23 02:11:43;;;;;;;18.55;11.93;;;5.40;91.30;;;;;;5069194;28;20196;-83
2021/03/23 02:14:13;;;;;;;16.20;10.95;;;5.40;91.20;;;;;;5069271;28;20286;-83
2021/03/23 02:16:42;;;;;;;16.80;10.95;;;5.30;91.10;;;;;;5069993;28;20547;-83
2021/03/23 02:19:11;;;;;;;20.70;12.52;;;5.50;91.10;;;;;;5069093;28;20223;-83
2021/03/23 02:21:39;;;;;;;19.08;12.18;;;5.30;90.90;;;;;;5069700;28;20195;-82
2021/03/23 02:24:07;;;;;;;20.00;11.80;;;5.20;91.20;;;;;;5068495;28;20196;-83
2021/03/23 02:26:36;;;;;;;22.70;12.02;;;5.00;91.90;;;;;;5068952;28;20302;-83
2021/03/23 02:29:07;;;;;;;27.23;14.52;;;5.10;92.00;;;;;;5069376;28;20219;-83
2021/03/23 02:31:39;;;;;;;20.48;13.32;;;5.10;91.90;;;;;;5062379;28;20661;-83
2021/03/23 02:34:08;;;;;;;19.58;13.13;;;4.90;91.80;;;;;;5061167;28;20195;-83
2021/03/23 02:36:37;;;;;;;20.02;13.48;;;5.10;92.30;;;;;;5069913;28;20200;-83
2021/03/23 02:39:07;;;;;;;20.73;12.48;;;5.10;91.80;;;;;;5069214;28;20187;-83
2021/03/23 02:41:34;;;;;;;21.50;13.65;;;5.10;91.80;;;;;;5071905;28;20286;-83
2021/03/23 02:44:02;;;;;;;23.75;15.05;;;5.30;91.80;;;;;;5066607;28;20211;-83
2021/03/23 02:46:29;;;;;;;25.50;13.93;;;5.30;91.60;;;;;;5067714;28;20603;-83
2021/03/23 02:48:57;;;;;;;21.92;14.57;;;5.30;91.80;;;;;;5072674;28;20348;-83
2021/03/23 02:51:26;;;;;;;20.85;13.18;;;5.30;91.50;;;;;;5073343;28;20681;-83
2021/03/23 02:53:54;;;;;;;18.23;12.55;;;5.20;91.60;;;;;;5071950;28;20249;-83
2021/03/23 02:56:22;;;;;;;25.20;15.32;;;5.00;91.50;;;;;;5073781;28;20195;-82
2021/03/23 02:58:49;;;;;;;22.50;12.90;;;5.00;91.90;;;;;;5072916;28;20195;-83
2021/03/23 03:01:17;;;;;;;21.58;14.73;;;4.80;92.10;;;;;;5072722;28;20736;-82
2021/03/23 03:03:44;;;;;;;18.33;13.93;;;4.90;92.40;;;;;;5072950;28;20207;-83
2021/03/23 03:06:12;;;;;;;23.15;14.25;;;5.00;92.40;;;;;;5072642;28;20223;-83
2021/03/23 03:08:39;;;;;;;20.73;13.65;;;4.80;92.00;;;;;;5073132;28;20219;-83
2021/03/23 03:11:07;;;;;;;22.05;13.43;;;4.70;92.80;;;;;;5073036;28;20203;-83
2021/03/23 03:13:35;;;;;;;23.67;15.60;;;4.90;92.90;;;;;;5071457;28;20195;-83
2021/03/23 03:16:03;;;;;;;23.60;14.00;;;4.90;93.00;;;;;;5072086;28;20207;-83
2021/03/23 03:18:29;;;;;;;23.55;14.65;;;4.90;92.40;;;;;;5071969;28;20203;-83
2021/03/23 03:20:57;;;;;;;27.70;14.90;;;5.00;92.60;;;;;;5072190;28;20203;-83
2021/03/23 03:23:24;;;;;;;23.05;14.80;;;5.10;92.40;;;;;;5071865;28;20203;-83
2021/03/23 03:25:52;;;;;;;23.38;16.42;;;5.10;92.20;;;;;;5071541;28;20683;-83
2021/03/23 03:28:19;;;;;;;22.23;15.43;;;5.00;92.20;;;;;;5072790;28;20200;-83
2021/03/23 03:30:46;;;;;;;23.02;15.30;;;5.00;92.20;;;;;;5072031;28;20557;-83
2021/03/23 03:33:15;;;;;;;31.23;15.93;;;5.00;92.50;;;;;;5072183;28;20218;-83
2021/03/23 03:35:43;;;;;;;24.80;14.88;;;4.90;92.40;;;;;;5072013;28;20219;-83
2021/03/23 03:38:29;;;;;;;29.50;15.88;;;5.10;92.60;;;;;;5065944;28;20303;-83
2021/03/23 03:41:03;;;;;;;26.13;15.88;;;5.20;92.40;;;;;;5069283;28;20623;-83
2021/03/23 03:43:36;;;;;;;26.60;15.48;;;5.20;92.20;;;;;;5071347;28;20664;-83
2021/03/23 03:46:07;;;;;;;25.33;16.73;;;5.30;92.30;;;;;;5071783;28;20206;-83
2021/03/23 03:48:38;;;;;;;24.13;16.00;;;5.20;92.10;;;;;;5071905;28;20219;-83
2021/03/23 03:51:08;;;;;;;21.65;14.82;;;5.30;92.20;;;;;;5072642;28;20203;-83
2021/03/23 03:53:54;;;;;;;21.48;14.07;;;5.30;91.90;;;;;;5050713;28;20289;-84
2021/03/23 03:56:41;;;;;;;23.77;16.05;;;5.20;92.10;;;;;;5070841;28;20257;-83
2021/03/23 03:59:27;;;;;;;25.25;16.77;;;5.10;92.20;;;;;;5071855;28;20203;-83
2021/03/23 04:02:14;;;;;;;21.15;14.77;;;5.20;92.30;;;;;;5052403;28;20291;-83
2021/03/23 04:05:01;;;;;;;26.75;16.90;;;5.30;92.10;;;;;;5060524;28;20228;-83
2021/03/23 04:07:47;;;;;;;25.65;15.35;;;5.40;92.00;;;;;;5053201;28;20255;-84
2021/03/23 04:10:34;;;;;;;21.50;15.27;;;5.30;91.60;;;;;;5070681;28;20312;-83
2021/03/23 04:13:21;;;;;;;24.88;14.23;;;5.30;91.70;;;;;;5069892;28;20240;-83
2021/03/23 04:16:08;;;;;;;21.98;15.05;;;5.30;91.90;;;;;;5071136;28;20203;-83
2021/03/23 04:18:55;;;;;;;24.70;14.88;;;5.30;91.80;;;;;;5071033;28;20199;-83
2021/03/23 04:21:41;;;;;;;28.23;18.13;;;5.40;91.70;;;;;;5064414;28;20235;-83
2021/03/23 04:24:28;;;;;;;28.08;17.52;;;5.30;91.60;;;;;;5063946;28;20210;-83
2021/03/23 04:27:14;;;;;;;24.55;16.17;;;5.40;91.80;;;;;;5069569;28;20214;-83
2021/03/23 04:30:01;;;;;;;31.90;17.63;;;5.40;91.70;;;;;;5063988;28;20271;-83
2021/03/23 04:32:47;;;;;;;24.42;17.38;;;5.60;91.60;;;;;;5067724;28;20202;-83
2021/03/23 04:35:25;;;;;;;26.27;15.50;;;5.50;91.50;;;;;;5070931;28;20203;-83
2021/03/23 04:38:06;;;;;;;26.33;17.63;;;5.60;91.60;;;;;;5069715;28;20249;-83
2021/03/23 04:40:45;;;;;;;26.02;16.50;;;5.60;91.80;;;;;;5069480;28;20203;-83
2021/03/23 04:43:20;;;;;;;20.73;15.07;;;5.60;91.40;;;;;;5071158;28;20192;-83
2021/03/23 04:45:51;;;;;;;20.83;15.25;;;5.50;91.20;;;;;;5066651;28;20225;-83
2021/03/23 04:48:21;;;;;;;27.15;17.60;;;5.30;91.40;;;;;;5071061;28;20247;-83
2021/03/23 04:50:52;;;;;;;23.27;17.40;;;5.20;91.60;;;;;;5070983;28;20195;-83
2021/03/23 04:53:25;;;;;;;25.42;17.60;;;5.40;91.80;;;;;;5070118;28;20274;-83
2021/03/23 04:56:00;;;;;;;26.42;18.35;;;5.30;91.50;;;;;;5067644;28;20248;-83
2021/03/23 04:58:29;;;;;;;23.80;17.75;;;5.30;91.60;;;;;;5070866;28;20199;-83
2021/03/23 05:01:00;;;;;;;30.17;17.35;;;5.30;91.60;;;;;;5071421;28;20211;-83
2021/03/23 05:03:33;;;;;;;24.77;18.25;;;5.40;91.80;;;;;;5071153;28;20679;-83
2021/03/23 05:06:09;;;;;;;25.67;16.95;;;5.40;91.60;;;;;;5062381;28;20249;-84
2021/03/23 05:08:44;;;;;;;29.02;18.35;;;5.40;91.80;;;;;;5071114;28;20214;-83
2021/03/23 05:11:14;;;;;;;29.60;16.35;;;5.50;91.70;;;;;;5072961;28;20206;-83
2021/03/23 05:13:43;;;;;;;23.50;17.33;;;5.60;91.40;;;;;;5070705;28;20256;-83
2021/03/23 05:16:15;;;;;;;26.85;17.25;;;5.50;91.30;;;;;;5071300;28;20260;-83
2021/03/23 05:18:45;;;;;;;28.30;17.48;;;5.60;91.50;;;;;;5070616;28;20696;-83
2021/03/23 05:21:14;;;;;;;26.40;17.15;;;5.60;91.30;;;;;;5070554;28;20205;-83
2021/03/23 05:23:46;;;;;;;24.95;17.05;;;5.60;91.30;;;;;;5070020;28;20195;-83
2021/03/23 05:26:18;;;;;;;33.75;17.60;;;5.70;91.10;;;;;;5070877;28;20191;-83
2021/03/23 05:28:47;;;;;;;29.58;17.33;;;5.70;91.20;;;;;;5070862;28;20214;-83
2021/03/23 05:31:17;;;;;;;23.80;16.08;;;5.70;91.20;;;;;;5066480;28;20551;-83
2021/03/23 05:33:49;;;;;;;28.67;17.92;;;5.80;91.20;;;;;;5059463;28;20312;-83
2021/03/23 05:36:18;;;;;;;28.63;17.42;;;5.70;91.00;;;;;;5071216;28;20195;-83
2021/03/23 05:38:49;;;;;;;27.83;17.38;;;5.80;91.00;;;;;;5071397;28;20195;-83
2021/03/23 05:41:26;;;;;;;31.10;19.30;;;5.90;91.00;;;;;;5071417;28;20649;-83
2021/03/23 05:44:10;;;;;;;25.25;17.13;;;5.90;90.90;;;;;;5070201;28;20191;-83
2021/03/23 05:46:41;;;;;;;27.98;17.95;;;5.80;90.60;;;;;;5071596;28;20218;-83
2021/03/23 05:49:32;;;;;;;23.17;15.27;;;5.80;90.80;;;;;;5069957;28;20211;-83
2021/03/23 05:52:16;;;;;;;23.98;16.50;;;5.70;90.70;;;;;;5070407;28;20274;-83
2021/03/23 05:54:54;;;;;;;22.27;16.63;;;5.70;91.30;;;;;;5069170;28;20202;-83
2021/03/23 05:57:32;;;;;;;27.45;17.13;;;5.50;91.10;;;;;;5070733;28;20245;-83
2021/03/23 06:00:19;;;;;;;27.02;15.57;;;5.50;91.10;;;;;;5070152;28;20191;-83
2021/03/23 06:02:53;;;;;;;27.75;17.83;;;5.70;91.30;;;;;;5069039;28;20202;-83
2021/03/23 06:05:41;;;;;;;31.35;16.88;;;5.30;91.20;;;;;;5068472;28;20205;-83
2021/03/23 06:08:26;;;;;;;31.25;17.67;;;5.40;91.80;;;;;;5070010;28;20264;-83
2021/03/23 06:11:33;;;;;;;24.13;14.88;;;5.60;91.60;;;;;;5050131;28;20196;-83
2021/03/23 06:14:27;;;;;;;29.00;17.70;;;5.70;91.30;;;;;;5037078;28;20207;-83
2021/03/23 06:17:07;;;;;;;29.73;18.33;;;5.80;90.90;;;;;;5072954;28;20234;-83
2021/03/23 06:19:44;;;;;;;29.70;17.85;;;5.80;90.90;;;;;;5074004;28;20291;-83
2021/03/23 06:22:35;;;;;;;27.10;16.27;;;5.50;90.50;;;;;;5074571;28;20672;-83
2021/03/23 06:25:26;;;;;;;24.58;16.23;;;5.50;91.30;;;;;;5064042;28;20210;-83
2021/03/23 06:27:58;;;;;;;32.72;18.95;;;5.60;91.70;;;;;;5071261;28;20226;-83
2021/03/23 06:30:45;;;;;;;33.95;18.90;;;5.60;91.40;;;;;;5068002;28;20681;-83
2021/03/23 06:33:19;;;;;;;29.70;18.05;;;5.60;91.20;;;;;;5053458;28;20214;-85
2021/03/23 06:35:57;;;;;;;28.98;18.55;;;5.60;91.20;;;;;;5054178;28;20298;-85
2021/03/23 06:38:31;;;;;;;28.80;18.73;;;5.70;91.50;;;;;;5058954;28;20199;-84
2021/03/23 06:41:18;;;;;;;29.10;17.83;;;5.90;91.20;;;;;;5066695;28;20322;-85
2021/03/23 06:43:50;;;;;;;22.02;16.10;;;5.90;90.70;;;;;;5072689;28;20203;-85
2021/03/23 06:46:41;;;;;;;24.83;16.15;;;5.90;91.00;;;;;;5073098;28;20243;-85
2021/03/23 06:49:25;;;;;;;29.13;15.63;;;5.90;90.90;;;;;;5072712;28;20219;-85
2021/03/23 06:52:18;;;;;;;25.80;17.77;;;6.20;90.90;;;;;;5073214;28;20203;-85
2021/03/23 06:55:23;;;;;;;27.40;16.27;;;6.30;90.40;;;;;;5064993;28;20220;-86
2021/03/23 06:57:55;;;;;;;27.92;16.88;;;6.30;90.10;;;;;;5073242;28;20259;-85
2021/03/23 07:00:31;;;;;;;25.67;18.20;;;6.40;90.10;;;;;;5072693;28;20203;-85
2021/03/23 07:03:14;;;;;;;24.67;16.38;;;6.70;90.00;;;;;;5072219;28;20207;-85
2021/03/23 07:05:45;;;;;;;24.63;16.83;;;6.60;89.00;;;;;;5070739;28;20686;-85
2021/03/23 07:08:25;;;;;;;30.30;18.23;;;6.70;88.80;;;;;;5073627;28;20696;-85
2021/03/23 07:11:07;;;;;;;25.77;17.48;;;6.80;88.30;;;;;;5068210;28;20253;-85
2021/03/23 07:13:53;;;;;;;34.45;18.55;;;6.90;88.20;;;;;;5071436;28;20656;-85
2021/03/23 07:16:29;;;;;;;25.35;16.85;;;6.80;87.50;;;;;;5073042;28;20199;-85
2021/03/23 07:19:09;;;;;;;25.98;17.67;;;7.00;87.80;;;;;;5071766;28;20329;-85
2021/03/23 07:21:44;;;;;;;24.50;15.77;;;7.00;87.60;;;;;;5072601;28;20203;-85
2021/03/23 07:24:18;;;;;;;25.52;17.48;;;6.90;88.00;;;;;;5072177;28;20532;-84
2021/03/23 07:27:01;;;;;;;39.22;17.80;;;6.90;87.20;;;;;;5071525;28;20207;-85
2021/03/23 07:29:38;;;;;;;27.05;17.58;;;6.50;87.90;;;;;;5067949;28;20351;-85
2021/03/23 07:32:15;;;;;;;35.58;18.83;;;6.20;89.00;;;;;;5072021;28;20238;-85
2021/03/23 07:35:03;;;;;;;28.40;17.30;;;6.30;89.60;;;;;;5072061;28;20202;-85
2021/03/23 07:37:44;;;;;;;27.95;16.65;;;6.60;89.10;;;;;;5072582;28;20200;-84
2021/03/23 07:40:34;;;;;;;26.25;15.63;;;6.60;87.80;;;;;;5072493;28;20608;-85
2021/03/23 07:43:29;;;;;;;31.85;18.13;;;6.10;88.30;;;;;;5071830;28;20203;-84
2021/03/23 07:46:05;;;;;;;28.83;17.73;;;5.80;89.70;;;;;;5037491;28;20753;-85
2021/03/23 07:48:44;;;;;;;30.08;16.95;;;6.10;90.40;;;;;;5070892;28;20260;-85
2021/03/23 07:51:24;;;;;;;30.92;17.60;;;6.60;90.10;;;;;;5070455;28;20230;-84
2021/03/23 07:54:03;;;;;;;28.50;17.92;;;7.00;89.70;;;;;;5071575;28;20191;-85
2021/03/23 07:56:48;;;;;;;24.98;16.60;;;7.20;87.60;;;;;;5052287;28;20249;-85
2021/03/23 07:59:26;;;;;;;24.58;16.02;;;7.40;86.90;;;;;;5059641;28;20187;-85
2021/03/23 08:02:05;;;;;;;28.70;16.90;;;7.50;86.60;;;;;;5072405;28;20191;-85
2021/03/23 08:04:49;;;;;;;29.92;18.50;;;7.60;86.10;;;;;;5071342;28;20205;-85
2021/03/23 08:07:24;;;;;;;27.13;18.25;;;7.80;85.90;;;;;;5061623;28;20211;-85
2021/03/23 08:10:05;;;;;;;26.48;16.67;;;7.20;84.60;;;;;;5071178;28;20277;-85
2021/03/23 08:12:58;;;;;;;34.72;19.38;;;7.40;86.20;;;;;;5073134;28;20209;-84
2021/03/23 08:15:40;;;;;;;26.50;17.38;;;7.70;86.20;;;;;;5071773;28;20234;-85
2021/03/23 08:18:48;;;;;;;23.08;15.43;;;7.80;85.20;;;;;;5071826;28;20747;-85
2021/03/23 08:21:56;;;;;;;21.30;14.13;;;7.90;84.60;;;;;;5072384;28;20221;-85
2021/03/23 08:24:38;;;;;;;24.75;15.82;;;7.30;83.10;;;;;;5072398;28;20535;-85
2021/03/23 08:27:35;;;;;;;21.80;15.23;;;6.90;85.00;;;;;;5072865;28;20199;-85
2021/03/23 08:30:25;;;;;;;23.35;13.90;;;6.90;86.20;;;;;;5071847;28;20240;-85
2021/03/23 08:33:03;;;;;;;26.27;15.40;;;7.00;86.90;;;;;;5055041;28;20322;-85
2021/03/23 08:36:10;;;;;;;25.00;16.95;;;7.40;86.20;;;;;;5069630;28;20203;-84
2021/03/23 08:39:06;;;;;;;25.33;15.07;;;7.90;85.00;;;;;;5071655;28;20248;-85
2021/03/23 08:41:46;;;;;;;22.60;14.40;;;8.10;83.90;;;;;;5054037;28;20208;-86
2021/03/23 08:44:33;;;;;;;26.67;17.08;;;8.30;83.80;;;;;;5066705;28;20191;-85
2021/03/23 08:47:13;;;;;;;24.42;14.60;;;8.50;82.80;;;;;;5073083;28;20199;-85
2021/03/23 08:49:44;;;;;;;23.90;15.43;;;8.60;82.00;;;;;;5069962;28;20258;-85
2021/03/23 08:52:32;;;;;;;19.55;13.90;;;8.60;81.40;;;;;;5071152;28;20699;-85
2021/03/23 08:55:06;;;;;;;21.83;13.48;;;7.90;80.30;;;;;;5071896;28;20562;-85
2021/03/23 08:57:50;;;;;;;22.75;13.73;;;7.70;82.10;;;;;;5072127;28;20191;-85
2021/03/23 09:00:57;;;;;;;19.63;13.55;;;7.50;82.90;;;;;;5071908;28;20699;-85
2021/03/23 09:03:47;;;;;;;20.30;13.27;;;7.70;82.00;;;;;;5071507;28;20236;-85
2021/03/23 09:06:23;;;;;;;18.38;12.80;;;8.00;82.90;;;;;;5051561;28;20234;-85
2021/03/23 09:08:55;;;;;;;21.23;12.85;;;8.50;81.60;;;;;;5052027;28;20220;-85
2021/03/23 09:12:01;;;;;;;14.93;11.05;;;8.30;78.00;;;;;;5067563;28;20191;-85
2021/03/23 09:14:32;;;;;;;19.98;12.40;;;8.60;80.10;;;;;;5070506;28;20215;-85
2021/03/23 09:17:20;;;;;;;16.05;11.10;;;9.10;79.90;;;;;;5070753;28;20264;-86
2021/03/23 09:19:56;;;;;;;18.00;11.30;;;9.50;77.20;;;;;;5070987;28;20196;-85
2021/03/23 09:22:35;;;;;;;13.60;8.93;;;9.60;75.80;;;;;;5070768;28;21090;-85
2021/03/23 09:25:49;;;;;;;16.90;10.63;;;9.60;73.10;;;;;;5059367;28;20653;-85
2021/03/23 09:28:46;;;;;;;14.73;10.63;;;9.60;73.60;;;;;;5063449;28;21226;-85
2021/03/23 09:31:21;;;;;;;11.30;8.10;;;9.90;73.90;;;;;;5056370;28;20619;-85
2021/03/23 09:33:53;;;;;;;12.00;8.33;;;10.00;70.40;;;;;;5071267;28;20978;-85
2021/03/23 09:36:50;;;;;;;10.40;6.70;;;10.00;69.30;;;;;;5073379;28;20969;-85
2021/03/23 09:39:46;;;;;;;10.90;7.57;;;9.50;68.50;;;;;;5071671;28;20613;-85
2021/03/23 09:42:35;;;;;;;7.97;5.90;;;9.70;71.10;;;;;;5071387;28;20628;-85
2021/03/23 09:45:36;;;;;;;11.00;6.60;;;9.30;66.60;;;;;;5070386;28;20206;-85
2021/03/23 09:48:55;;;;;;;9.50;7.20;;;9.50;70.00;;;;;;5074013;28;20637;-86
2021/03/23 09:51:46;;;;;;;6.73;6.00;;;9.70;68.90;;;;;;5071649;28;20621;-86
2021/03/23 09:54:24;;;;;;;10.35;7.72;;;9.40;67.60;;;;;;5073142;28;20633;-86
2021/03/23 09:56:58;;;;;;;10.68;7.43;;;9.30;68.10;;;;;;5073138;28;20222;-85
2021/03/23 09:59:31;;;;;;;12.00;7.72;;;8.00;68.70;;;;;;5072506;28;20261;-87
2021/03/23 10:02:05;;;;;;;9.80;7.40;;;8.50;71.20;;;;;;5072609;28;20281;-87
2021/03/23 10:04:37;;;;;;;9.95;7.07;;;8.80;68.20;;;;;;5072967;28;20554;-87
2021/03/23 10:07:29;;;;;;;8.38;6.20;;;8.40;67.40;;;;;;5058039;28;20645;-86
2021/03/23 10:10:11;;;;;;;9.10;6.25;;;8.10;66.20;;;;;;5073087;28;20234;-87
2021/03/23 10:12:43;;;;;;;8.40;5.88;;;8.60;68.50;;;;;;5071484;28;20202;-86
2021/03/23 10:15:27;;;;;;;10.25;7.32;;;8.80;69.70;;;;;;5072991;28;20272;-86
2021/03/23 10:18:12;;;;;;;10.03;6.83;;;9.00;69.10;;;;;;5071908;28;20210;-87
2021/03/23 10:20:43;;;;;;;9.80;7.20;;;9.10;68.10;;;;;;5073231;28;20631;-87
2021/03/23 10:23:14;;;;;;;9.20;7.05;;;8.50;67.80;;;;;;5072785;28;20629;-86
2021/03/23 10:25:50;;;;;;;11.05;7.97;;;8.50;69.80;;;;;;5072691;28;20195;-87
2021/03/23 10:28:26;;;;;;;7.95;6.13;;;8.20;69.00;;;;;;5072527;28;20219;-87
2021/03/23 10:31:01;;;;;;;6.95;4.95;;;8.40;69.40;;;;;;5072540;28;20203;-87
2021/03/23 10:33:35;;;;;;;6.07;5.13;;;8.90;70.40;;;;;;5071285;28;20211;-87
2021/03/23 10:36:10;;;;;;;5.90;4.95;;;9.00;66.90;;;;;;5071060;28;20194;-87
2021/03/23 10:38:43;;;;;;;9.18;5.57;;;8.80;65.50;;;;;;5071105;28;20191;-87
2021/03/23 10:41:33;;;;;;;10.70;7.27;;;9.10;68.30;;;;;;5070869;28;20199;-87
2021/03/23 10:44:18;;;;;;;9.30;6.32;;;9.20;68.10;;;;;;5070544;28;21049;-87
2021/03/23 10:46:50;;;;;;;8.88;5.95;;;9.40;67.20;;;;;;5072442;28;20191;-86
2021/03/23 10:49:36;;;;;;;10.00;6.27;;;9.40;67.30;;;;;;5071975;28;20222;-87
2021/03/23 10:52:27;;;;;;;7.68;5.95;;;9.60;65.60;;;;;;5070238;28;21260;-87
2021/03/23 10:55:33;;;;;;;8.60;6.20;;;9.70;67.10;;;;;;5068326;28;20203;-87
2021/03/23 10:58:29;;;;;;;9.55;5.57;;;9.70;66.90;;;;;;5010356;28;20620;-87
2021/03/23 11:01:12;;;;;;;10.82;5.75;;;8.80;65.60;;;;;;5003881;28;20255;-87
2021/03/23 11:03:43;;;;;;;6.95;5.28;;;9.20;67.50;;;;;;5056918;28;20210;-87
2021/03/23 11:06:31;;;;;;;6.97;5.50;;;9.10;64.40;;;;;;5076023;28;20275;-86
2021/03/23 11:09:05;;;;;;;7.80;5.73;;;9.20;66.00;;;;;;5074256;28;20239;-87
2021/03/23 11:11:40;;;;;;;9.87;5.70;;;9.50;66.00;;;;;;5075934;28;20642;-86
2021/03/23 11:14:11;;;;;;;9.60;6.07;;;9.60;65.90;;;;;;5072573;28;20621;-87
2021/03/23 11:16:45;;;;;;;8.80;5.97;;;9.80;65.30;;;;;;5073984;28;20702;-87
2021/03/23 11:19:28;;;;;;;10.20;7.30;;;9.80;66.10;;;;;;5072469;28;20625;-87
2021/03/23 11:22:04;;;;;;;10.10;6.47;;;10.00;63.90;;;;;;5073348;28;20742;-87
2021/03/23 11:24:33;;;;;;;10.47;5.93;;;10.00;63.30;;;;;;5072795;28;20717;-86
2021/03/23 11:27:07;;;;;;;11.07;6.93;;;10.10;62.40;;;;;;5073959;28;21165;-86
2021/03/23 11:29:40;;;;;;;9.77;7.30;;;10.20;62.00;;;;;;5075615;28;20655;-86
2021/03/23 11:32:10;;;;;;;8.53;6.10;;;10.10;62.30;;;;;;5061039;28;20649;-87
2021/03/23 11:34:39;;;;;;;9.03;6.60;;;10.10;61.80;;;;;;5074536;28;20632;-86
2021/03/23 11:37:12;;;;;;;8.13;6.10;;;10.00;61.60;;;;;;5075177;28;20601;-87
2021/03/23 11:39:43;;;;;;;7.13;6.13;;;9.90;64.10;;;;;;5076176;28;20653;-86
2021/03/23 11:42:17;;;;;;;7.13;5.03;;;9.70;65.50;;;;;;5075213;28;20690;-87
2021/03/23 11:44:48;;;;;;;9.80;5.70;;;9.10;63.80;;;;;;5075869;28;20628;-88
2021/03/23 11:47:26;;;;;;;11.83;6.03;;;9.00;63.10;;;;;;5075458;28;20632;-86
2021/03/23 11:50:05;;;;;;;10.13;6.27;;;8.40;62.70;;;;;;5074586;28;20741;-87
2021/03/23 11:52:38;;;;;;;6.30;5.30;;;8.80;64.30;;;;;;5074624;28;20613;-86
2021/03/23 11:55:13;;;;;;;6.68;5.30;;;9.30;65.40;;;;;;5074990;28;20191;-87
2021/03/23 11:57:43;;;;;;;7.40;5.25;;;9.60;64.50;;;;;;5077028;28;20275;-85
2021/03/23 12:00:15;;;;;;;7.53;5.40;;;9.70;63.90;;;;;;5076123;28;20290;-86
2021/03/23 12:02:45;;;;;;;9.53;5.50;;;9.70;64.10;;;;;;5076437;28;20621;-86
2021/03/23 12:05:16;;;;;;;9.60;6.60;;;9.80;63.00;;;;;;5076312;28;20656;-87
2021/03/23 12:08:16;;;;;;;10.13;6.33;;;9.50;60.80;;;;;;5076188;28;20634;-87
2021/03/23 12:10:58;;;;;;;7.28;5.55;;;9.30;62.60;;;;;;5071429;28;20966;-85
2021/03/23 12:13:42;;;;;;;5.50;4.80;;;9.00;61.30;;;;;;5074268;28;20206;-87
2021/03/23 12:16:17;;;;;;;9.40;5.37;;;9.10;64.00;;;;;;5075736;28;20627;-87
2021/03/23 12:18:53;;;;;;;7.80;6.05;;;9.00;64.30;;;;;;5076107;28;20665;-87
2021/03/23 12:21:21;;;;;;;8.25;5.68;;;8.80;65.40;;;;;;5076199;28;20587;-86
2021/03/23 12:23:48;;;;;;;10.10;6.93;;;8.70;64.60;;;;;;5073314;28;20258;-87
2021/03/23 12:26:16;;;;;;;7.93;5.90;;;8.80;65.50;;;;;;5074955;28;20747;-86
2021/03/23 12:28:44;;;;;;;8.93;5.90;;;9.00;66.00;;;;;;5073461;28;20672;-86
2021/03/23 12:31:11;;;;;;;6.47;5.30;;;9.10;65.20;;;;;;5075685;28;20211;-86
2021/03/23 12:33:38;;;;;;;8.27;6.90;;;8.70;63.60;;;;;;5075367;28;20631;-86
2021/03/23 12:36:05;;;;;;;7.70;5.78;;;8.50;63.60;;;;;;5077027;28;20207;-86
2021/03/23 12:38:34;;;;;;;7.60;6.70;;;8.50;65.10;;;;;;5074864;28;20229;-86
2021/03/23 12:41:00;;;;;;;9.18;7.60;;;8.50;64.90;;;;;;5075248;28;20289;-86
2021/03/23 12:43:28;;;;;;;8.93;6.85;;;8.60;64.20;;;;;;5073353;28;20199;-85
2021/03/23 12:45:57;;;;;;;9.05;7.20;;;9.00;66.10;;;;;;5074972;28;20241;-86
2021/03/23 12:48:24;;;;;;;10.13;7.10;;;9.30;65.90;;;;;;5073783;28;20294;-86
2021/03/23 12:50:51;;;;;;;9.47;6.60;;;9.60;64.40;;;;;;5074263;28;20199;-86
2021/03/23 12:53:19;;;;;;;8.83;6.53;;;9.80;64.90;;;;;;5073493;28;20609;-86
2021/03/23 12:55:50;;;;;;;8.83;7.00;;;9.90;62.70;;;;;;5068244;28;20617;-86
2021/03/23 12:58:20;;;;;;;9.97;8.20;;;9.90;63.60;;;;;;5053597;28;20622;-86
2021/03/23 13:00:47;;;;;;;15.40;8.40;;;9.40;62.70;;;;;;5072148;28;20613;-85
2021/03/23 13:03:16;;;;;;;12.13;8.60;;;9.00;64.50;;;;;;5071069;28;20674;-86
2021/03/23 13:05:43;;;;;;;14.07;9.67;;;9.20;66.50;;;;;;5070600;28;20613;-86
2021/03/23 13:08:22;;;;;;;10.90;8.90;;;9.30;65.10;;;;;;5071154;28;20708;-87
2021/03/23 13:10:52;;;;;;;11.73;8.70;;;9.40;65.40;;;;;;5072474;28;20659;-87
2021/03/23 13:13:22;;;;;;;13.47;8.50;;;9.50;66.00;;;;;;5071543;28;20632;-86
2021/03/23 13:15:50;;;;;;;10.70;9.17;;;9.70;65.70;;;;;;5073730;28;21137;-86
2021/03/23 13:18:19;;;;;;;15.03;8.10;;;9.80;65.30;;;;;;5072008;28;21045;-87
2021/03/23 13:20:45;;;;;;;12.77;10.30;;;9.60;63.40;;;;;;5071105;28;21141;-86
2021/03/23 13:23:22;;;;;;;14.67;10.80;;;9.00;62.90;;;;;;5070812;28;20728;-86
2021/03/23 13:25:53;;;;;;;22.97;17.67;;;9.00;64.20;;;;;;5069623;28;21289;-86
2021/03/23 13:28:33;;;;;;;14.27;9.60;;;8.90;65.50;;;;;;5071372;28;20626;-86